sensor_id;sensor_type;location;lat;lon;timestamp;pressure;altitude;pressure_sealevel;temperature;humidity
20930;BME280;21895;47.072;15.132;2024-02-14T00:02:14;97248.00;;;1.16;71.05
20930;BME280;21895;47.072;15.132;2024-02-14T00:04:41;97248.00;;;1.19;71.80
20930;BME280;21895;47.072;15.132;2024-02-14T00:07:08;97253.00;;;1.40;71.71
20930;BME280;21895;47.072;15.132;2024-02-14T00:09:35;97256.00;;;1.30;70.64
20930;BME280;21895;47.072;15.132;2024-02-14T00:12:02;97256.00;;;1.16;70.79
20930;BME280;21895;47.072;15.132;2024-02-14T00:14:29;97252.00;;;0.79;70.76
20930;BME280;21895;47.072;15.132;2024-02-14T00:16:55;97247.00;;;0.67;71.73
20930;BME280;21895;47.072;15.132;2024-02-14T00:19:23;97242.00;;;0.60;71.54
20930;BME280;21895;47.072;15.132;2024-02-14T00:21:49;97239.00;;;0.48;72.30
20930;BME280;21895;47.072;15.132;2024-02-14T00:24:16;97250.00;;;0.72;72.25
20930;BME280;21895;47.072;15.132;2024-02-14T00:26:45;97257.00;;;0.73;71.86
20930;BME280;21895;47.072;15.132;2024-02-14T00:29:12;97254.00;;;0.74;72.11
20930;BME280;21895;47.072;15.132;2024-02-14T00:31:39;97255.00;;;0.75;71.90
20930;BME280;21895;47.072;15.132;2024-02-14T00:34:05;97260.00;;;0.65;70.49
20930;BME280;21895;47.072;15.132;2024-02-14T00:36:32;97257.00;;;0.44;71.61
20930;BME280;21895;47.072;15.132;2024-02-14T00:38:59;97258.00;;;0.47;71.02
20930;BME280;21895;47.072;15.132;2024-02-14T00:41:26;97256.00;;;0.41;70.83
20930;BME280;21895;47.072;15.132;2024-02-14T00:43:56;97251.00;;;0.33;71.11
20930;BME280;21895;47.072;15.132;2024-02-14T00:46:23;97257.00;;;0.19;71.88
20930;BME280;21895;47.072;15.132;2024-02-14T00:48:49;97263.00;;;0.18;71.70
20930;BME280;21895;47.072;15.132;2024-02-14T00:51:16;97261.00;;;0.08;71.65
20930;BME280;21895;47.072;15.132;2024-02-14T00:53:43;97261.00;;;0.02;70.39
20930;BME280;21895;47.072;15.132;2024-02-14T00:56:09;97269.00;;;-0.22;71.16
20930;BME280;21895;47.072;15.132;2024-02-14T00:58:36;97274.00;;;-0.18;72.70
20930;BME280;21895;47.072;15.132;2024-02-14T01:01:03;97273.00;;;0.15;73.54
20930;BME280;21895;47.072;15.132;2024-02-14T01:03:30;97266.00;;;0.13;73.78
20930;BME280;21895;47.072;15.132;2024-02-14T01:05:56;97271.00;;;0.02;70.68
20930;BME280;21895;47.072;15.132;2024-02-14T01:08:23;97278.00;;;-0.15;70.98
20930;BME280;21895;47.072;15.132;2024-02-14T01:10:50;97282.00;;;-0.22;72.28
20930;BME280;21895;47.072;15.132;2024-02-14T01:13:19;97280.00;;;-0.25;72.17
20930;BME280;21895;47.072;15.132;2024-02-14T01:15:45;97283.00;;;-0.17;73.17
20930;BME280;21895;47.072;15.132;2024-02-14T01:18:12;97282.00;;;-0.32;72.52
20930;BME280;21895;47.072;15.132;2024-02-14T01:20:38;97272.00;;;-0.38;73.67
20930;BME280;21895;47.072;15.132;2024-02-14T01:23:05;97272.00;;;0.25;74.06
20930;BME280;21895;47.072;15.132;2024-02-14T01:25:32;97273.00;;;0.18;74.62
20930;BME280;21895;47.072;15.132;2024-02-14T01:27:59;97267.00;;;0.07;72.95
20930;BME280;21895;47.072;15.132;2024-02-14T01:30:26;97270.00;;;0.22;72.96
20930;BME280;21895;47.072;15.132;2024-02-14T01:32:53;97265.00;;;0.16;73.36
20930;BME280;21895;47.072;15.132;2024-02-14T01:35:20;97263.00;;;0.28;73.49
20930;BME280;21895;47.072;15.132;2024-02-14T01:37:46;97269.00;;;0.28;73.68
20930;BME280;21895;47.072;15.132;2024-02-14T01:40:13;97270.00;;;0.48;72.77
20930;BME280;21895;47.072;15.132;2024-02-14T01:42:39;97265.00;;;0.35;70.50
20930;BME280;21895;47.072;15.132;2024-02-14T01:45:07;97271.00;;;0.10;71.50
20930;BME280;21895;47.072;15.132;2024-02-14T01:47:34;97275.00;;;0.06;71.28
20930;BME280;21895;47.072;15.132;2024-02-14T01:50:01;97271.00;;;-0.09;71.84
20930;BME280;21895;47.072;15.132;2024-02-14T01:52:28;97265.00;;;-0.01;72.81
20930;BME280;21895;47.072;15.132;2024-02-14T01:54:54;97267.00;;;-0.02;72.11
20930;BME280;21895;47.072;15.132;2024-02-14T01:57:22;97271.00;;;0.00;72.20
20930;BME280;21895;47.072;15.132;2024-02-14T01:59:51;97263.00;;;-0.08;71.91
20930;BME280;21895;47.072;15.132;2024-02-14T02:02:19;97269.00;;;-0.27;72.07
20930;BME280;21895;47.072;15.132;2024-02-14T02:04:45;97269.00;;;-0.30;72.93
20930;BME280;21895;47.072;15.132;2024-02-14T02:07:12;97267.00;;;-0.25;72.88
20930;BME280;21895;47.072;15.132;2024-02-14T02:09:39;97264.00;;;-0.33;73.25
20930;BME280;21895;47.072;15.132;2024-02-14T02:12:06;97269.00;;;-0.45;73.79
20930;BME280;21895;47.072;15.132;2024-02-14T02:14:34;97268.00;;;-0.47;73.93
20930;BME280;21895;47.072;15.132;2024-02-14T02:17:00;97269.00;;;-0.21;73.71
20930;BME280;21895;47.072;15.132;2024-02-14T02:19:28;97264.00;;;-0.14;74.05
20930;BME280;21895;47.072;15.132;2024-02-14T02:21:55;97271.00;;;-0.11;74.14
20930;BME280;21895;47.072;15.132;2024-02-14T02:24:21;97272.00;;;-0.20;72.31
20930;BME280;21895;47.072;15.132;2024-02-14T02:26:48;97271.00;;;-0.26;73.45
20930;BME280;21895;47.072;15.132;2024-02-14T02:29:15;97281.00;;;-0.21;73.22
20930;BME280;21895;47.072;15.132;2024-02-14T02:31:42;97279.00;;;-0.13;73.30
20930;BME280;21895;47.072;15.132;2024-02-14T02:34:09;97283.00;;;-0.12;72.99
20930;BME280;21895;47.072;15.132;2024-02-14T02:36:37;97280.00;;;-0.01;73.19
20930;BME280;21895;47.072;15.132;2024-02-14T02:39:04;97286.00;;;0.06;72.76
20930;BME280;21895;47.072;15.132;2024-02-14T02:41:34;97294.00;;;0.00;72.01
20930;BME280;21895;47.072;15.132;2024-02-14T02:44:00;97281.00;;;-0.18;71.81
20930;BME280;21895;47.072;15.132;2024-02-14T02:46:28;97285.00;;;-0.27;70.83
20930;BME280;21895;47.072;15.132;2024-02-14T02:48:55;97282.00;;;-0.69;71.52
20930;BME280;21895;47.072;15.132;2024-02-14T02:51:25;97289.00;;;-0.73;72.29
20930;BME280;21895;47.072;15.132;2024-02-14T02:53:51;97294.00;;;-0.83;72.40
20930;BME280;21895;47.072;15.132;2024-02-14T02:56:18;97294.00;;;-0.86;73.30
20930;BME280;21895;47.072;15.132;2024-02-14T02:58:45;97296.00;;;-1.01;73.09
20930;BME280;21895;47.072;15.132;2024-02-14T03:01:11;97293.00;;;-0.88;73.60
20930;BME280;21895;47.072;15.132;2024-02-14T03:03:38;97305.00;;;-0.61;73.15
20930;BME280;21895;47.072;15.132;2024-02-14T03:06:06;97306.00;;;-0.77;73.68
20930;BME280;21895;47.072;15.132;2024-02-14T03:08:33;97311.00;;;-0.77;74.01
20930;BME280;21895;47.072;15.132;2024-02-14T03:11:07;97312.00;;;-0.72;73.42
20930;BME280;21895;47.072;15.132;2024-02-14T03:13:34;97311.00;;;-0.85;72.66
20930;BME280;21895;47.072;15.132;2024-02-14T03:16:02;97307.00;;;-0.76;73.04
20930;BME280;21895;47.072;15.132;2024-02-14T03:18:28;97310.00;;;-0.76;72.02
20930;BME280;21895;47.072;15.132;2024-02-14T03:20:55;97306.00;;;-1.01;71.34
20930;BME280;21895;47.072;15.132;2024-02-14T03:23:22;97309.00;;;-1.09;72.87
20930;BME280;21895;47.072;15.132;2024-02-14T03:25:49;97315.00;;;-1.02;73.76
20930;BME280;21895;47.072;15.132;2024-02-14T03:28:17;97319.00;;;-0.93;73.73
20930;BME280;21895;47.072;15.132;2024-02-14T03:30:44;97324.00;;;-0.87;74.77
20930;BME280;21895;47.072;15.132;2024-02-14T03:33:11;97321.00;;;-0.81;74.30
20930;BME280;21895;47.072;15.132;2024-02-14T03:35:37;97319.00;;;-0.82;73.21
20930;BME280;21895;47.072;15.132;2024-02-14T03:38:04;97321.00;;;-0.97;73.25
20930;BME280;21895;47.072;15.132;2024-02-14T03:40:34;97317.00;;;-1.01;73.12
20930;BME280;21895;47.072;15.132;2024-02-14T03:43:02;97323.00;;;-0.99;72.92
20930;BME280;21895;47.072;15.132;2024-02-14T03:45:28;97325.00;;;-0.99;73.93
20930;BME280;21895;47.072;15.132;2024-02-14T03:47:56;97328.00;;;-0.92;74.57
20930;BME280;21895;47.072;15.132;2024-02-14T03:50:23;97329.00;;;-0.87;73.97
20930;BME280;21895;47.072;15.132;2024-02-14T03:52:49;97327.00;;;-0.78;73.52
20930;BME280;21895;47.072;15.132;2024-02-14T03:55:16;97329.00;;;-0.87;72.15
20930;BME280;21895;47.072;15.132;2024-02-14T03:57:45;97336.00;;;-1.15;71.42
20930;BME280;21895;47.072;15.132;2024-02-14T04:00:14;97339.00;;;-1.38;72.64
20930;BME280;21895;47.072;15.132;2024-02-14T04:02:40;97343.00;;;-1.38;73.07
20930;BME280;21895;47.072;15.132;2024-02-14T04:05:08;97343.00;;;-1.25;72.70
20930;BME280;21895;47.072;15.132;2024-02-14T04:07:36;97346.00;;;-1.33;72.76
20930;BME280;21895;47.072;15.132;2024-02-14T04:10:04;97343.00;;;-1.47;73.89
20930;BME280;21895;47.072;15.132;2024-02-14T04:12:31;97357.00;;;-1.20;74.13
20930;BME280;21895;47.072;15.132;2024-02-14T04:14:57;97352.00;;;-1.10;73.55
20930;BME280;21895;47.072;15.132;2024-02-14T04:17:24;97349.00;;;-1.17;73.09
20930;BME280;21895;47.072;15.132;2024-02-14T04:19:51;97356.00;;;-1.21;73.32
20930;BME280;21895;47.072;15.132;2024-02-14T04:22:18;97361.00;;;-1.35;72.83
20930;BME280;21895;47.072;15.132;2024-02-14T04:24:45;97355.00;;;-1.41;74.13
20930;BME280;21895;47.072;15.132;2024-02-14T04:27:11;97361.00;;;-1.36;73.68
20930;BME280;21895;47.072;15.132;2024-02-14T04:29:38;97360.00;;;-1.38;73.54
20930;BME280;21895;47.072;15.132;2024-02-14T04:32:05;97366.00;;;-1.26;72.92
20930;BME280;21895;47.072;15.132;2024-02-14T04:34:32;97370.00;;;-1.51;71.86
20930;BME280;21895;47.072;15.132;2024-02-14T04:36:59;97367.00;;;-1.67;72.78
20930;BME280;21895;47.072;15.132;2024-02-14T04:39:25;97372.00;;;-1.63;73.50
20930;BME280;21895;47.072;15.132;2024-02-14T04:41:52;97362.00;;;-1.62;74.23
20930;BME280;21895;47.072;15.132;2024-02-14T04:44:32;97363.00;;;-1.76;74.00
20930;BME280;21895;47.072;15.132;2024-02-14T04:46:59;97360.00;;;-1.70;74.01
20930;BME280;21895;47.072;15.132;2024-02-14T04:49:27;97364.00;;;-1.73;74.30
20930;BME280;21895;47.072;15.132;2024-02-14T04:51:57;97356.00;;;-1.55;74.39
20930;BME280;21895;47.072;15.132;2024-02-14T04:54:24;97367.00;;;-1.41;73.91
20930;BME280;21895;47.072;15.132;2024-02-14T04:56:52;97369.00;;;-1.66;73.45
20930;BME280;21895;47.072;15.132;2024-02-14T04:59:24;97360.00;;;-1.65;73.99
20930;BME280;21895;47.072;15.132;2024-02-14T05:01:50;97366.00;;;-1.49;73.75
20930;BME280;21895;47.072;15.132;2024-02-14T05:04:19;97365.00;;;-1.52;73.93
20930;BME280;21895;47.072;15.132;2024-02-14T05:06:47;97359.00;;;-1.43;74.26
20930;BME280;21895;47.072;15.132;2024-02-14T05:09:14;97355.00;;;-1.42;74.17
20930;BME280;21895;47.072;15.132;2024-02-14T05:11:41;97365.00;;;-1.44;72.29
20930;BME280;21895;47.072;15.132;2024-02-14T05:14:08;97368.00;;;-1.73;73.26
20930;BME280;21895;47.072;15.132;2024-02-14T05:16:34;97364.00;;;-1.74;74.21
20930;BME280;21895;47.072;15.132;2024-02-14T05:19:01;97367.00;;;-1.77;73.56
20930;BME280;21895;47.072;15.132;2024-02-14T05:21:28;97371.00;;;-1.68;73.48
20930;BME280;21895;47.072;15.132;2024-02-14T05:23:56;97375.00;;;-1.72;73.82
20930;BME280;21895;47.072;15.132;2024-02-14T05:26:22;97366.00;;;-1.62;72.42
20930;BME280;21895;47.072;15.132;2024-02-14T05:28:49;97366.00;;;-1.68;72.94
20930;BME280;21895;47.072;15.132;2024-02-14T05:31:16;97368.00;;;-1.70;73.02
20930;BME280;21895;47.072;15.132;2024-02-14T05:33:42;97367.00;;;-1.80;72.46
20930;BME280;21895;47.072;15.132;2024-02-14T05:36:09;97359.00;;;-2.11;72.31
20930;BME280;21895;47.072;15.132;2024-02-14T05:38:36;97362.00;;;-2.41;73.23
20930;BME280;21895;47.072;15.132;2024-02-14T05:41:03;97361.00;;;-2.34;74.16
20930;BME280;21895;47.072;15.132;2024-02-14T05:43:30;97367.00;;;-2.16;74.88
20930;BME280;21895;47.072;15.132;2024-02-14T05:45:56;97364.00;;;-2.11;75.01
20930;BME280;21895;47.072;15.132;2024-02-14T05:48:24;97359.00;;;-1.91;75.75
20930;BME280;21895;47.072;15.132;2024-02-14T05:50:50;97361.00;;;-1.69;75.28
20930;BME280;21895;47.072;15.132;2024-02-14T05:53:17;97355.00;;;-1.68;75.39
20930;BME280;21895;47.072;15.132;2024-02-14T05:55:44;97364.00;;;-1.87;74.66
20930;BME280;21895;47.072;15.132;2024-02-14T05:58:10;97373.00;;;-1.80;73.79
20930;BME280;21895;47.072;15.132;2024-02-14T06:00:38;97373.00;;;-1.60;73.06
20930;BME280;21895;47.072;15.132;2024-02-14T06:03:05;97372.00;;;-1.83;72.99
20930;BME280;21895;47.072;15.132;2024-02-14T06:05:32;97371.00;;;-1.91;73.56
20930;BME280;21895;47.072;15.132;2024-02-14T06:07:59;97378.00;;;-1.89;74.20
20930;BME280;21895;47.072;15.132;2024-02-14T06:10:26;97371.00;;;-1.78;72.68
20930;BME280;21895;47.072;15.132;2024-02-14T06:12:55;97372.00;;;-1.88;71.77
20930;BME280;21895;47.072;15.132;2024-02-14T06:15:23;97370.00;;;-2.06;72.79
20930;BME280;21895;47.072;15.132;2024-02-14T06:17:50;97377.00;;;-1.82;72.37
20930;BME280;21895;47.072;15.132;2024-02-14T06:20:16;97384.00;;;-1.89;72.00
20930;BME280;21895;47.072;15.132;2024-02-14T06:22:43;97387.00;;;-1.89;72.96
20930;BME280;21895;47.072;15.132;2024-02-14T06:25:23;97386.00;;;-1.71;72.92
20930;BME280;21895;47.072;15.132;2024-02-14T06:27:49;97394.00;;;-1.64;72.45
20930;BME280;21895;47.072;15.132;2024-02-14T06:30:16;97396.00;;;-1.85;72.89
20930;BME280;21895;47.072;15.132;2024-02-14T06:32:43;97402.00;;;-1.75;73.69
20930;BME280;21895;47.072;15.132;2024-02-14T06:35:10;97401.00;;;-1.80;74.54
20930;BME280;21895;47.072;15.132;2024-02-14T06:37:37;97401.00;;;-1.50;75.21
20930;BME280;21895;47.072;15.132;2024-02-14T06:40:18;97398.00;;;-1.37;73.17
20930;BME280;21895;47.072;15.132;2024-02-14T06:42:45;97408.00;;;-1.35;74.33
20930;BME280;21895;47.072;15.132;2024-02-14T06:45:12;97406.00;;;-1.14;75.29
20930;BME280;21895;47.072;15.132;2024-02-14T06:47:39;97416.00;;;-0.85;75.13
20930;BME280;21895;47.072;15.132;2024-02-14T06:50:07;97418.00;;;-0.55;74.36
20930;BME280;21895;47.072;15.132;2024-02-14T06:52:37;97410.00;;;-0.37;73.62
20930;BME280;21895;47.072;15.132;2024-02-14T06:55:04;97408.00;;;-0.21;73.27
20930;BME280;21895;47.072;15.132;2024-02-14T06:57:31;97404.00;;;-0.04;72.92
20930;BME280;21895;47.072;15.132;2024-02-14T06:59:57;97417.00;;;0.06;72.24
20930;BME280;21895;47.072;15.132;2024-02-14T07:02:25;97408.00;;;0.13;72.66
20930;BME280;21895;47.072;15.132;2024-02-14T07:04:56;97407.00;;;0.22;73.09
20930;BME280;21895;47.072;15.132;2024-02-14T07:07:23;97403.00;;;0.35;72.60
20930;BME280;21895;47.072;15.132;2024-02-14T07:09:49;97413.00;;;0.46;72.50
20930;BME280;21895;47.072;15.132;2024-02-14T07:12:16;97414.00;;;0.49;72.48
20930;BME280;21895;47.072;15.132;2024-02-14T07:14:43;97414.00;;;0.75;72.25
20930;BME280;21895;47.072;15.132;2024-02-14T07:17:09;97411.00;;;0.91;72.25
20930;BME280;21895;47.072;15.132;2024-02-14T07:19:36;97411.00;;;1.06;72.82
20930;BME280;21895;47.072;15.132;2024-02-14T07:22:04;97410.00;;;1.35;72.41
20930;BME280;21895;47.072;15.132;2024-02-14T07:24:31;97416.00;;;1.58;71.81
20930;BME280;21895;47.072;15.132;2024-02-14T07:26:58;97414.00;;;1.73;71.32
20930;BME280;21895;47.072;15.132;2024-02-14T07:29:24;97422.00;;;1.91;71.09
20930;BME280;21895;47.072;15.132;2024-02-14T07:31:51;97417.00;;;2.14;70.90
20930;BME280;21895;47.072;15.132;2024-02-14T07:34:18;97417.00;;;2.24;70.73
20930;BME280;21895;47.072;15.132;2024-02-14T07:36:45;97422.00;;;2.58;69.71
20930;BME280;21895;47.072;15.132;2024-02-14T07:39:12;97418.00;;;2.59;69.76
20930;BME280;21895;47.072;15.132;2024-02-14T07:41:39;97418.00;;;2.82;69.78
20930;BME280;21895;47.072;15.132;2024-02-14T07:44:06;97413.00;;;3.08;67.75
20930;BME280;21895;47.072;15.132;2024-02-14T07:46:33;97416.00;;;3.28;66.39
20930;BME280;21895;47.072;15.132;2024-02-14T07:49:00;97420.00;;;3.41;65.06
20930;BME280;21895;47.072;15.132;2024-02-14T07:51:27;97415.00;;;3.58;65.19
20930;BME280;21895;47.072;15.132;2024-02-14T07:53:55;97424.00;;;3.70;64.76
20930;BME280;21895;47.072;15.132;2024-02-14T07:56:21;97427.00;;;3.83;66.20
20930;BME280;21895;47.072;15.132;2024-02-14T07:58:48;97422.00;;;3.89;66.19
20930;BME280;21895;47.072;15.132;2024-02-14T08:01:16;97420.00;;;3.74;66.71
20930;BME280;21895;47.072;15.132;2024-02-14T08:03:42;97433.00;;;3.77;66.36
20930;BME280;21895;47.072;15.132;2024-02-14T08:06:09;97427.00;;;3.74;65.77
20930;BME280;21895;47.072;15.132;2024-02-14T08:08:36;97435.00;;;3.93;65.73
20930;BME280;21895;47.072;15.132;2024-02-14T08:11:02;97437.00;;;4.04;64.68
20930;BME280;21895;47.072;15.132;2024-02-14T08:13:29;97440.00;;;4.13;63.69
20930;BME280;21895;47.072;15.132;2024-02-14T08:15:55;97441.00;;;4.28;64.36
20930;BME280;21895;47.072;15.132;2024-02-14T08:18:22;97441.00;;;4.62;63.46
20930;BME280;21895;47.072;15.132;2024-02-14T08:20:49;97435.00;;;4.70;62.85
20930;BME280;21895;47.072;15.132;2024-02-14T08:23:16;97438.00;;;4.98;62.64
20930;BME280;21895;47.072;15.132;2024-02-14T08:25:46;97436.00;;;4.89;61.69
20930;BME280;21895;47.072;15.132;2024-02-14T08:28:14;97430.00;;;4.88;62.11
20930;BME280;21895;47.072;15.132;2024-02-14T08:30:41;97436.00;;;5.00;61.55
20930;BME280;21895;47.072;15.132;2024-02-14T08:33:08;97436.00;;;5.22;61.55
20930;BME280;21895;47.072;15.132;2024-02-14T08:35:34;97431.00;;;5.43;61.05
20930;BME280;21895;47.072;15.132;2024-02-14T08:38:09;97435.00;;;5.77;60.12
20930;BME280;21895;47.072;15.132;2024-02-14T08:40:35;97428.00;;;5.99;58.87
20930;BME280;21895;47.072;15.132;2024-02-14T08:43:03;97435.00;;;6.25;58.81
20930;BME280;21895;47.072;15.132;2024-02-14T08:45:30;97435.00;;;6.46;57.96
20930;BME280;21895;47.072;15.132;2024-02-14T08:47:57;97422.00;;;6.64;57.11
20930;BME280;21895;47.072;15.132;2024-02-14T08:50:24;97423.00;;;6.78;57.39
20930;BME280;21895;47.072;15.132;2024-02-14T08:52:51;97413.00;;;6.78;56.17
20930;BME280;21895;47.072;15.132;2024-02-14T08:55:17;97413.00;;;6.97;55.53
20930;BME280;21895;47.072;15.132;2024-02-14T08:57:44;97423.00;;;7.03;55.46
20930;BME280;21895;47.072;15.132;2024-02-14T09:00:12;97417.00;;;7.21;56.25
20930;BME280;21895;47.072;15.132;2024-02-14T09:02:41;97417.00;;;7.42;54.87
20930;BME280;21895;47.072;15.132;2024-02-14T09:05:08;97415.00;;;7.62;54.65
20930;BME280;21895;47.072;15.132;2024-02-14T09:07:35;97415.00;;;7.78;53.31
20930;BME280;21895;47.072;15.132;2024-02-14T09:10:03;97407.00;;;7.78;52.64
20930;BME280;21895;47.072;15.132;2024-02-14T09:12:31;97412.00;;;7.95;52.65
20930;BME280;21895;47.072;15.132;2024-02-14T09:14:58;97406.00;;;7.98;51.03
20930;BME280;21895;47.072;15.132;2024-02-14T09:17:25;97404.00;;;8.03;50.06
20930;BME280;21895;47.072;15.132;2024-02-14T09:19:51;97403.00;;;8.16;49.52
20930;BME280;21895;47.072;15.132;2024-02-14T09:22:18;97407.00;;;8.37;49.37
20930;BME280;21895;47.072;15.132;2024-02-14T09:24:48;97403.00;;;8.49;47.99
20930;BME280;21895;47.072;15.132;2024-02-14T09:27:15;97404.00;;;8.53;48.45
20930;BME280;21895;47.072;15.132;2024-02-14T09:29:42;97389.00;;;8.67;48.45
20930;BME280;21895;47.072;15.132;2024-02-14T09:32:11;97402.00;;;8.70;48.54
20930;BME280;21895;47.072;15.132;2024-02-14T09:34:37;97400.00;;;8.86;47.60
20930;BME280;21895;47.072;15.132;2024-02-14T09:37:04;97397.00;;;9.00;47.08
20930;BME280;21895;47.072;15.132;2024-02-14T09:39:33;97391.00;;;9.03;45.86
20930;BME280;21895;47.072;15.132;2024-02-14T09:42:09;97387.00;;;9.05;45.10
20930;BME280;21895;47.072;15.132;2024-02-14T09:44:37;97391.00;;;8.97;46.39
20930;BME280;21895;47.072;15.132;2024-02-14T09:47:07;97383.00;;;9.04;46.48
20930;BME280;21895;47.072;15.132;2024-02-14T09:49:35;97392.00;;;9.13;46.78
20930;BME280;21895;47.072;15.132;2024-02-14T09:52:11;97392.00;;;9.31;46.93
20930;BME280;21895;47.072;15.132;2024-02-14T09:54:40;97388.00;;;9.52;46.64
20930;BME280;21895;47.072;15.132;2024-02-14T09:57:07;97381.00;;;9.68;46.76
20930;BME280;21895;47.072;15.132;2024-02-14T09:59:36;97385.00;;;9.77;46.52
20930;BME280;21895;47.072;15.132;2024-02-14T10:02:03;97388.00;;;9.88;45.87
20930;BME280;21895;47.072;15.132;2024-02-14T10:04:30;97383.00;;;10.02;45.36
20930;BME280;21895;47.072;15.132;2024-02-14T10:06:57;97379.00;;;10.18;45.14
20930;BME280;21895;47.072;15.132;2024-02-14T10:09:25;97383.00;;;10.36;45.28
20930;BME280;21895;47.072;15.132;2024-02-14T10:11:54;97379.00;;;10.33;45.34
20930;BME280;21895;47.072;15.132;2024-02-14T10:14:23;97378.00;;;10.29;44.45
20930;BME280;21895;47.072;15.132;2024-02-14T10:16:50;97377.00;;;10.09;45.72
20930;BME280;21895;47.072;15.132;2024-02-14T10:19:18;97375.00;;;10.24;44.65
20930;BME280;21895;47.072;15.132;2024-02-14T10:21:56;97366.00;;;10.33;44.41
20930;BME280;21895;47.072;15.132;2024-02-14T10:24:26;97365.00;;;10.51;43.78
20930;BME280;21895;47.072;15.132;2024-02-14T10:26:52;97366.00;;;10.65;42.97
20930;BME280;21895;47.072;15.132;2024-02-14T10:29:20;97367.00;;;10.68;43.52
20930;BME280;21895;47.072;15.132;2024-02-14T10:31:49;97360.00;;;10.63;43.41
20930;BME280;21895;47.072;15.132;2024-02-14T10:34:18;97356.00;;;10.68;42.88
20930;BME280;21895;47.072;15.132;2024-02-14T10:36:45;97356.00;;;10.78;41.62
20930;BME280;21895;47.072;15.132;2024-02-14T10:39:13;97350.00;;;10.84;41.81
20930;BME280;21895;47.072;15.132;2024-02-14T10:41:42;97360.00;;;10.92;41.58
20930;BME280;21895;47.072;15.132;2024-02-14T10:44:10;97349.00;;;10.81;41.53
20930;BME280;21895;47.072;15.132;2024-02-14T10:46:38;97355.00;;;10.83;41.37
20930;BME280;21895;47.072;15.132;2024-02-14T10:49:07;97348.00;;;10.82;41.20
20930;BME280;21895;47.072;15.132;2024-02-14T10:51:38;97350.00;;;11.13;39.97
20930;BME280;21895;47.072;15.132;2024-02-14T10:54:14;97350.00;;;11.24;39.67
20930;BME280;21895;47.072;15.132;2024-02-14T10:56:49;97340.00;;;11.28;40.01
20930;BME280;21895;47.072;15.132;2024-02-14T10:59:24;97344.00;;;11.46;39.32
20930;BME280;21895;47.072;15.132;2024-02-14T11:01:52;97333.00;;;11.51;39.74
20930;BME280;21895;47.072;15.132;2024-02-14T11:04:21;97333.00;;;11.57;38.82
20930;BME280;21895;47.072;15.132;2024-02-14T11:06:53;97324.00;;;11.68;38.67
20930;BME280;21895;47.072;15.132;2024-02-14T11:09:21;97314.00;;;11.86;37.91
20930;BME280;21895;47.072;15.132;2024-02-14T11:11:48;97304.00;;;11.79;39.56
20930;BME280;21895;47.072;15.132;2024-02-14T11:14:18;97312.00;;;11.80;39.51
20930;BME280;21895;47.072;15.132;2024-02-14T11:16:46;97309.00;;;11.83;39.51
20930;BME280;21895;47.072;15.132;2024-02-14T11:19:18;97305.00;;;11.86;38.71
20930;BME280;21895;47.072;15.132;2024-02-14T11:21:47;97309.00;;;12.06;38.33
20930;BME280;21895;47.072;15.132;2024-02-14T11:24:15;97303.00;;;12.35;37.99
20930;BME280;21895;47.072;15.132;2024-02-14T11:26:52;97292.00;;;12.22;37.74
20930;BME280;21895;47.072;15.132;2024-02-14T11:29:20;97303.00;;;12.21;37.95
20930;BME280;21895;47.072;15.132;2024-02-14T11:31:59;97288.00;;;12.26;38.28
20930;BME280;21895;47.072;15.132;2024-02-14T11:34:29;97297.00;;;12.25;38.10
20930;BME280;21895;47.072;15.132;2024-02-14T11:37:04;97295.00;;;12.36;37.45
20930;BME280;21895;47.072;15.132;2024-02-14T11:39:33;97288.00;;;12.26;37.93
20930;BME280;21895;47.072;15.132;2024-02-14T11:42:01;97288.00;;;12.31;38.98
20930;BME280;21895;47.072;15.132;2024-02-14T11:44:27;97293.00;;;12.49;38.85
20930;BME280;21895;47.072;15.132;2024-02-14T11:46:54;97296.00;;;12.46;37.92
20930;BME280;21895;47.072;15.132;2024-02-14T11:49:22;97284.00;;;12.37;38.07
20930;BME280;21895;47.072;15.132;2024-02-14T11:51:49;97285.00;;;12.48;38.28
20930;BME280;21895;47.072;15.132;2024-02-14T11:54:16;97288.00;;;12.43;39.28
20930;BME280;21895;47.072;15.132;2024-02-14T11:56:44;97289.00;;;12.34;38.96
20930;BME280;21895;47.072;15.132;2024-02-14T11:59:11;97280.00;;;12.38;39.51
20930;BME280;21895;47.072;15.132;2024-02-14T12:01:38;97280.00;;;12.75;38.45
20930;BME280;21895;47.072;15.132;2024-02-14T12:04:08;97273.00;;;12.50;39.19
20930;BME280;21895;47.072;15.132;2024-02-14T12:06:36;97270.00;;;12.50;38.54
20930;BME280;21895;47.072;15.132;2024-02-14T12:09:04;97267.00;;;12.40;38.55
20930;BME280;21895;47.072;15.132;2024-02-14T12:11:32;97274.00;;;12.49;37.77
20930;BME280;21895;47.072;15.132;2024-02-14T12:14:05;97276.00;;;12.89;37.35
20930;BME280;21895;47.072;15.132;2024-02-14T12:16:33;97274.00;;;12.85;35.72
20930;BME280;21895;47.072;15.132;2024-02-14T12:19:13;97270.00;;;12.59;36.17
20930;BME280;21895;47.072;15.132;2024-02-14T12:21:42;97274.00;;;12.61;35.41
20930;BME280;21895;47.072;15.132;2024-02-14T12:24:14;97273.00;;;12.70;35.10
20930;BME280;21895;47.072;15.132;2024-02-14T12:26:42;97267.00;;;12.76;36.71
20930;BME280;21895;47.072;15.132;2024-02-14T12:29:12;97274.00;;;12.77;35.73
20930;BME280;21895;47.072;15.132;2024-02-14T12:31:39;97271.00;;;12.82;36.15
20930;BME280;21895;47.072;15.132;2024-02-14T12:34:05;97268.00;;;12.84;36.38
20930;BME280;21895;47.072;15.132;2024-02-14T12:36:34;97264.00;;;12.72;36.44
20930;BME280;21895;47.072;15.132;2024-02-14T12:39:02;97266.00;;;12.69;37.07
20930;BME280;21895;47.072;15.132;2024-02-14T12:41:30;97268.00;;;12.90;36.13
20930;BME280;21895;47.072;15.132;2024-02-14T12:44:00;97264.00;;;12.81;35.20
20930;BME280;21895;47.072;15.132;2024-02-14T12:46:28;97259.00;;;12.80;35.96
20930;BME280;21895;47.072;15.132;2024-02-14T12:48:54;97257.00;;;12.80;34.82
20930;BME280;21895;47.072;15.132;2024-02-14T12:51:21;97253.00;;;12.81;35.39
20930;BME280;21895;47.072;15.132;2024-02-14T12:53:49;97248.00;;;12.85;34.76
20930;BME280;21895;47.072;15.132;2024-02-14T12:56:16;97251.00;;;12.70;34.40